If you wish to contribute or participate in the discussions about articles you are invited to join SKYbrary as a registered user

 Actions

Comandante Gustavo Kraemer Airport

From SKYbrary Wiki

SBBG
Airport
ICAO: SBBG – IATA: BGX
Summary
Name Comandante Gustavo Kraemer Airport
Region South America and Caribbean
Territory Brazil BR.gif
Location Bage, Rio Grande do Sul
Serving Bage
Elevation 182.88 m
600 ft182.88 m
Coordinates 31° 23' 21.77" S, 54° 6' 38.95" W
Runways
Designator Length Width Surface ROPS
14/32 1149 m3,769.685 ft
45 m147.638 ft
GRS /
6/24 1500 m4,921.26 ft
30 m98.425 ft
CON /


METAR
Observation SBBG 142000Z 15008KT 9999 FEW020 SCT030 18/13 Q1026
Station Bage Aeroporto
Date/Time 14 May 2019 20:00:00
Wind direction 150°
Wind speed 08 kts
Lowest cloud amount few clouds
Temperature 18°C
Dew point 13°C
Humidity 72%
QNH 1026 hPa
Weather condition n/a

Comandante Gustavo Kraemer International Airport is the airport serving Bagé, Brazil.

Climatology

Humid subtropical climate (Köppen climate classification Cfa)

Maps

Terrain

Loading map...

Airport Layout

Loading map...


Accidents & Serious Incidents at or in vicinity of SBBG

None on SKYbrary